sensor_id;sensor_type;location;lat;lon;timestamp;pressure;altitude;pressure_sealevel;temperature;humidity
80624;BME280;70269;44.768;9.600;2023-06-24T00:02:04;97584.69;;;17.63;57.98
80624;BME280;70269;44.768;9.600;2023-06-24T00:04:29;97585.59;;;17.69;57.46
80624;BME280;70269;44.768;9.600;2023-06-24T00:06:56;97580.06;;;17.64;58.95
80624;BME280;70269;44.768;9.600;2023-06-24T00:09:25;97585.44;;;17.59;58.58
80624;BME280;70269;44.768;9.600;2023-06-24T00:11:56;97582.72;;;17.59;58.89
80624;BME280;70269;44.768;9.600;2023-06-24T00:14:22;97588.34;;;17.52;58.06
80624;BME280;70269;44.768;9.600;2023-06-24T00:16:50;97589.97;;;17.53;58.43
80624;BME280;70269;44.768;9.600;2023-06-24T00:19:20;97593.22;;;17.50;58.54
80624;BME280;70269;44.768;9.600;2023-06-24T00:21:49;97596.97;;;17.44;59.57
80624;BME280;70269;44.768;9.600;2023-06-24T00:24:17;97588.97;;;17.37;59.44
80624;BME280;70269;44.768;9.600;2023-06-24T00:26:46;97592.97;;;17.30;59.71
80624;BME280;70269;44.768;9.600;2023-06-24T00:29:11;97582.22;;;17.23;60.05
80624;BME280;70269;44.768;9.600;2023-06-24T00:31:37;97579.84;;;17.27;60.49
80624;BME280;70269;44.768;9.600;2023-06-24T00:34:04;97589.34;;;17.24;60.08
80624;BME280;70269;44.768;9.600;2023-06-24T00:36:30;97587.03;;;17.16;60.26
80624;BME280;70269;44.768;9.600;2023-06-24T00:38:58;97595.31;;;17.21;59.44
80624;BME280;70269;44.768;9.600;2023-06-24T00:41:29;97592.66;;;17.10;59.31
80624;BME280;70269;44.768;9.600;2023-06-24T00:43:55;97591.53;;;17.06;59.77
80624;BME280;70269;44.768;9.600;2023-06-24T00:46:27;97588.56;;;17.07;60.64
80624;BME280;70269;44.768;9.600;2023-06-24T00:48:55;97593.25;;;17.12;60.49
80624;BME280;70269;44.768;9.600;2023-06-24T00:51:20;97597.75;;;17.01;60.32
80624;BME280;70269;44.768;9.600;2023-06-24T00:53:47;97588.06;;;16.93;61.26
80624;BME280;70269;44.768;9.600;2023-06-24T00:56:18;97580.13;;;16.92;60.37
80624;BME280;70269;44.768;9.600;2023-06-24T00:58:45;97581.47;;;16.89;61.20
80624;BME280;70269;44.768;9.600;2023-06-24T01:01:12;97583.22;;;16.95;60.81
80624;BME280;70269;44.768;9.600;2023-06-24T01:03:38;97589.97;;;16.93;61.93
80624;BME280;70269;44.768;9.600;2023-06-24T01:06:03;97586.69;;;16.91;60.81
80624;BME280;70269;44.768;9.600;2023-06-24T01:08:29;97589.72;;;16.94;61.56
80624;BME280;70269;44.768;9.600;2023-06-24T01:10:55;97591.56;;;16.89;60.81
80624;BME280;70269;44.768;9.600;2023-06-24T01:13:21;97593.22;;;16.90;60.80
80624;BME280;70269;44.768;9.600;2023-06-24T01:15:48;97590.56;;;16.95;60.32
80624;BME280;70269;44.768;9.600;2023-06-24T01:18:22;97599.22;;;16.92;60.88
80624;BME280;70269;44.768;9.600;2023-06-24T01:20:52;97589.91;;;16.88;60.58
80624;BME280;70269;44.768;9.600;2023-06-24T01:23:40;97588.41;;;16.80;61.57
80624;BME280;70269;44.768;9.600;2023-06-24T01:34:34;97592.22;;;16.79;60.96
80624;BME280;70269;44.768;9.600;2023-06-24T01:37:13;97602.31;;;16.79;60.97
80624;BME280;70269;44.768;9.600;2023-06-24T01:39:48;97601.91;;;16.70;60.81
80624;BME280;70269;44.768;9.600;2023-06-24T01:42:16;97592.31;;;16.68;60.38
80624;BME280;70269;44.768;9.600;2023-06-24T01:44:44;97590.09;;;16.65;61.53
80624;BME280;70269;44.768;9.600;2023-06-24T01:47:10;97591.88;;;16.59;61.69
80624;BME280;70269;44.768;9.600;2023-06-24T01:49:40;97590.69;;;16.55;61.99
80624;BME280;70269;44.768;9.600;2023-06-24T01:52:08;97592.53;;;16.49;62.74
80624;BME280;70269;44.768;9.600;2023-06-24T01:54:36;97601.69;;;16.43;63.03
80624;BME280;70269;44.768;9.600;2023-06-24T01:57:06;97594.50;;;16.37;62.59
80624;BME280;70269;44.768;9.600;2023-06-24T01:59:33;97600.69;;;16.33;62.87
80624;BME280;70269;44.768;9.600;2023-06-24T02:02:00;97600.69;;;16.33;63.46
80624;BME280;70269;44.768;9.600;2023-06-24T02:04:27;97597.66;;;16.29;63.22
80624;BME280;70269;44.768;9.600;2023-06-24T02:06:59;97596.22;;;16.27;63.56
80624;BME280;70269;44.768;9.600;2023-06-24T02:09:28;97593.94;;;16.35;62.71
80624;BME280;70269;44.768;9.600;2023-06-24T02:11:58;97602.44;;;16.22;63.68
80624;BME280;70269;44.768;9.600;2023-06-24T02:14:26;97605.63;;;16.19;63.78
80624;BME280;70269;44.768;9.600;2023-06-24T02:16:54;97598.38;;;16.25;64.20
80624;BME280;70269;44.768;9.600;2023-06-24T02:19:27;97596.63;;;16.18;64.42
80624;BME280;70269;44.768;9.600;2023-06-24T02:21:57;97599.94;;;16.21;64.32
80624;BME280;70269;44.768;9.600;2023-06-24T02:24:26;97595.13;;;16.11;64.10
80624;BME280;70269;44.768;9.600;2023-06-24T02:26:52;97601.50;;;16.16;64.26
80624;BME280;70269;44.768;9.600;2023-06-24T02:29:19;97607.53;;;16.18;64.34
80624;BME280;70269;44.768;9.600;2023-06-24T02:31:45;97605.63;;;16.19;63.41
80624;BME280;70269;44.768;9.600;2023-06-24T02:34:11;97607.19;;;16.15;63.25
80624;BME280;70269;44.768;9.600;2023-06-24T02:36:37;97615.13;;;16.16;63.61
80624;BME280;70269;44.768;9.600;2023-06-24T02:39:03;97608.34;;;16.19;63.51
80624;BME280;70269;44.768;9.600;2023-06-24T02:41:29;97604.56;;;16.20;63.20
80624;BME280;70269;44.768;9.600;2023-06-24T02:43:55;97603.63;;;16.14;63.80
80624;BME280;70269;44.768;9.600;2023-06-24T02:46:21;97609.25;;;16.08;64.87
80624;BME280;70269;44.768;9.600;2023-06-24T02:48:49;97606.19;;;16.04;64.32
80624;BME280;70269;44.768;9.600;2023-06-24T02:51:17;97612.13;;;16.01;64.27
80624;BME280;70269;44.768;9.600;2023-06-24T02:53:43;97609.28;;;15.96;65.34
80624;BME280;70269;44.768;9.600;2023-06-24T02:56:12;97616.03;;;15.94;65.31
80624;BME280;70269;44.768;9.600;2023-06-24T02:58:39;97627.22;;;15.92;65.59
80624;BME280;70269;44.768;9.600;2023-06-24T03:01:10;97618.91;;;15.87;65.84
80624;BME280;70269;44.768;9.600;2023-06-24T03:03:46;97620.63;;;15.76;66.95
80624;BME280;70269;44.768;9.600;2023-06-24T03:06:15;97633.03;;;15.84;65.95
80624;BME280;70269;44.768;9.600;2023-06-24T03:08:43;97625.31;;;15.81;66.72
80624;BME280;70269;44.768;9.600;2023-06-24T03:11:12;97618.34;;;15.85;65.74
80624;BME280;70269;44.768;9.600;2023-06-24T03:13:38;97620.09;;;15.91;65.93
80624;BME280;70269;44.768;9.600;2023-06-24T03:16:13;97636.44;;;15.91;65.88
80624;BME280;70269;44.768;9.600;2023-06-24T03:18:46;97631.69;;;15.87;65.65
80624;BME280;70269;44.768;9.600;2023-06-24T03:21:12;97633.13;;;15.89;65.91
80624;BME280;70269;44.768;9.600;2023-06-24T03:23:39;97640.00;;;15.92;65.68
80624;BME280;70269;44.768;9.600;2023-06-24T03:26:07;97636.41;;;16.03;65.29
80624;BME280;70269;44.768;9.600;2023-06-24T03:28:35;97639.94;;;16.03;65.08
80624;BME280;70269;44.768;9.600;2023-06-24T03:31:14;97650.75;;;15.98;65.23
80624;BME280;70269;44.768;9.600;2023-06-24T03:33:44;97651.59;;;15.87;65.41
80624;BME280;70269;44.768;9.600;2023-06-24T03:36:11;97648.72;;;15.94;65.64
80624;BME280;70269;44.768;9.600;2023-06-24T03:38:38;97653.16;;;15.83;65.60
80624;BME280;70269;44.768;9.600;2023-06-24T03:41:05;97650.66;;;15.82;65.70
80624;BME280;70269;44.768;9.600;2023-06-24T03:43:32;97656.94;;;15.82;66.59
80624;BME280;70269;44.768;9.600;2023-06-24T03:45:58;97666.19;;;15.81;65.83
80624;BME280;70269;44.768;9.600;2023-06-24T03:48:25;97666.19;;;15.81;66.43
80624;BME280;70269;44.768;9.600;2023-06-24T03:50:50;97661.22;;;15.78;66.46
80624;BME280;70269;44.768;9.600;2023-06-24T03:53:16;97672.00;;;15.85;67.00
80624;BME280;70269;44.768;9.600;2023-06-24T03:55:42;97669.50;;;15.83;66.27
80624;BME280;70269;44.768;9.600;2023-06-24T03:58:07;97670.47;;;15.77;67.04
80624;BME280;70269;44.768;9.600;2023-06-24T04:00:34;97670.47;;;15.77;67.18
80624;BME280;70269;44.768;9.600;2023-06-24T04:03:01;97675.19;;;15.82;66.91
80624;BME280;70269;44.768;9.600;2023-06-24T04:05:27;97673.19;;;15.77;66.43
80624;BME280;70269;44.768;9.600;2023-06-24T04:07:52;97678.63;;;15.77;66.92
80624;BME280;70269;44.768;9.600;2023-06-24T04:10:19;97684.19;;;15.82;67.04
80624;BME280;70269;44.768;9.600;2023-06-24T04:12:47;97687.72;;;15.94;67.19
80624;BME280;70269;44.768;9.600;2023-06-24T04:15:13;97687.13;;;16.49;65.49
80624;BME280;70269;44.768;9.600;2023-06-24T04:17:39;97686.63;;;17.14;62.92
80624;BME280;70269;44.768;9.600;2023-06-24T04:20:05;97682.19;;;17.63;61.43
80624;BME280;70269;44.768;9.600;2023-06-24T04:22:36;97687.97;;;18.10;59.84
80624;BME280;70269;44.768;9.600;2023-06-24T04:25:02;97695.56;;;18.25;59.33
80624;BME280;70269;44.768;9.600;2023-06-24T04:27:27;97689.81;;;18.53;58.35
80624;BME280;70269;44.768;9.600;2023-06-24T04:29:53;97690.94;;;18.79;57.63
80624;BME280;70269;44.768;9.600;2023-06-24T04:32:18;97699.72;;;19.13;56.31
80624;BME280;70269;44.768;9.600;2023-06-24T04:34:44;97703.44;;;19.33;55.68
80624;BME280;70269;44.768;9.600;2023-06-24T04:37:09;97693.22;;;19.56;55.07
80624;BME280;70269;44.768;9.600;2023-06-24T04:39:36;97693.31;;;19.76;54.31
80624;BME280;70269;44.768;9.600;2023-06-24T04:42:02;97693.97;;;19.93;54.28
80624;BME280;70269;44.768;9.600;2023-06-24T04:44:28;97702.22;;;20.03;54.15
80624;BME280;70269;44.768;9.600;2023-06-24T04:46:53;97703.28;;;19.92;54.77
80624;BME280;70269;44.768;9.600;2023-06-24T04:49:19;97703.41;;;20.23;53.83
80624;BME280;70269;44.768;9.600;2023-06-24T04:51:44;97710.66;;;20.49;53.12
80624;BME280;70269;44.768;9.600;2023-06-24T04:54:10;97708.25;;;20.73;52.42
80624;BME280;70269;44.768;9.600;2023-06-24T04:56:39;97712.09;;;20.72;53.11
80624;BME280;70269;44.768;9.600;2023-06-24T04:59:04;97713.47;;;20.89;52.04
80624;BME280;70269;44.768;9.600;2023-06-24T05:01:30;97712.69;;;21.09;51.21
80624;BME280;70269;44.768;9.600;2023-06-24T05:03:55;97717.34;;;21.09;51.97
80624;BME280;70269;44.768;9.600;2023-06-24T05:06:21;97721.41;;;20.76;52.39
80624;BME280;70269;44.768;9.600;2023-06-24T05:08:47;97725.47;;;20.43;53.47
80624;BME280;70269;44.768;9.600;2023-06-24T05:11:12;97731.81;;;20.64;54.45
80624;BME280;70269;44.768;9.600;2023-06-24T05:13:37;97736.59;;;21.24;52.52
80624;BME280;70269;44.768;9.600;2023-06-24T05:16:03;97736.34;;;21.41;52.24
80624;BME280;70269;44.768;9.600;2023-06-24T05:18:29;97729.75;;;21.47;51.08
80624;BME280;70269;44.768;9.600;2023-06-24T05:20:54;97731.06;;;21.85;49.93
80624;BME280;70269;44.768;9.600;2023-06-24T05:23:20;97733.44;;;22.16;49.60
80624;BME280;70269;44.768;9.600;2023-06-24T05:25:45;97742.69;;;22.41;49.30
80624;BME280;70269;44.768;9.600;2023-06-24T05:28:11;97742.34;;;22.63;49.21
80624;BME280;70269;44.768;9.600;2023-06-24T05:30:36;97750.16;;;22.40;49.33
80624;BME280;70269;44.768;9.600;2023-06-24T05:33:02;97753.13;;;22.49;49.63
80624;BME280;70269;44.768;9.600;2023-06-24T05:35:27;97742.31;;;22.73;49.34
80624;BME280;70269;44.768;9.600;2023-06-24T05:37:53;97748.28;;;22.85;49.09
80624;BME280;70269;44.768;9.600;2023-06-24T05:40:19;97751.03;;;22.85;48.41
80624;BME280;70269;44.768;9.600;2023-06-24T05:42:44;97748.34;;;22.75;49.08
80624;BME280;70269;44.768;9.600;2023-06-24T05:45:10;97740.00;;;22.90;49.04
80624;BME280;70269;44.768;9.600;2023-06-24T05:47:37;97755.41;;;22.91;48.84
80624;BME280;70269;44.768;9.600;2023-06-24T05:50:03;97746.56;;;22.99;48.38
80624;BME280;70269;44.768;9.600;2023-06-24T05:52:29;97754.97;;;22.69;49.65
80624;BME280;70269;44.768;9.600;2023-06-24T05:54:54;97748.84;;;22.87;49.27
80624;BME280;70269;44.768;9.600;2023-06-24T05:57:20;97753.53;;;23.25;48.93
80624;BME280;70269;44.768;9.600;2023-06-24T05:59:45;97751.47;;;23.41;48.38
80624;BME280;70269;44.768;9.600;2023-06-24T06:02:11;97758.44;;;23.67;47.50
80624;BME280;70269;44.768;9.600;2023-06-24T06:04:38;97761.53;;;23.90;47.08
80624;BME280;70269;44.768;9.600;2023-06-24T06:07:04;97757.44;;;24.11;46.25
80624;BME280;70269;44.768;9.600;2023-06-24T06:09:29;97750.00;;;24.11;45.16
80624;BME280;70269;44.768;9.600;2023-06-24T06:11:55;97749.47;;;23.52;49.32
80624;BME280;70269;44.768;9.600;2023-06-24T06:14:20;97750.50;;;23.90;47.91
80624;BME280;70269;44.768;9.600;2023-06-24T06:16:46;97752.94;;;24.20;47.59
80624;BME280;70269;44.768;9.600;2023-06-24T06:19:11;97756.41;;;23.49;49.42
80624;BME280;70269;44.768;9.600;2023-06-24T06:21:37;97760.91;;;23.69;49.46
80624;BME280;70269;44.768;9.600;2023-06-24T06:24:03;97762.28;;;24.00;48.89
80624;BME280;70269;44.768;9.600;2023-06-24T06:26:29;97755.94;;;24.47;48.03
80624;BME280;70269;44.768;9.600;2023-06-24T06:28:54;97766.22;;;23.89;48.36
80624;BME280;70269;44.768;9.600;2023-06-24T06:31:20;97768.31;;;24.31;48.09
80624;BME280;70269;44.768;9.600;2023-06-24T06:33:46;97770.31;;;24.68;47.85
80624;BME280;70269;44.768;9.600;2023-06-24T06:36:12;97762.53;;;24.94;47.93
80624;BME280;70269;44.768;9.600;2023-06-24T06:38:39;97765.84;;;24.30;49.42
80624;BME280;70269;44.768;9.600;2023-06-24T06:41:05;97763.91;;;24.73;48.92
80624;BME280;70269;44.768;9.600;2023-06-24T06:43:32;97767.56;;;24.21;49.32
80624;BME280;70269;44.768;9.600;2023-06-24T06:45:58;97769.00;;;24.84;48.32
80624;BME280;70269;44.768;9.600;2023-06-24T06:48:23;97761.00;;;25.39;48.60
80624;BME280;70269;44.768;9.600;2023-06-24T06:50:49;97769.31;;;25.02;47.39
80624;BME280;70269;44.768;9.600;2023-06-24T06:53:14;97775.00;;;25.48;47.64
80624;BME280;70269;44.768;9.600;2023-06-24T06:55:40;97776.03;;;25.33;49.33
80624;BME280;70269;44.768;9.600;2023-06-24T06:58:08;97778.22;;;25.36;48.20
80624;BME280;70269;44.768;9.600;2023-06-24T07:00:33;97776.09;;;25.65;46.43
80624;BME280;70269;44.768;9.600;2023-06-24T07:02:59;97782.78;;;26.10;45.98
80624;BME280;70269;44.768;9.600;2023-06-24T07:05:25;97776.59;;;26.00;46.64
80624;BME280;70269;44.768;9.600;2023-06-24T07:07:50;97779.38;;;26.13;44.68
80624;BME280;70269;44.768;9.600;2023-06-24T07:10:16;97776.75;;;26.22;46.16
80624;BME280;70269;44.768;9.600;2023-06-24T07:12:42;97773.28;;;26.30;42.80
80624;BME280;70269;44.768;9.600;2023-06-24T07:15:08;97773.06;;;26.68;38.31
80624;BME280;70269;44.768;9.600;2023-06-24T07:17:34;97775.16;;;27.12;41.31
80624;BME280;70269;44.768;9.600;2023-06-24T07:19:59;97783.13;;;26.77;42.37
80624;BME280;70269;44.768;9.600;2023-06-24T07:22:25;97791.50;;;26.86;44.20
80624;BME280;70269;44.768;9.600;2023-06-24T07:24:50;97793.41;;;27.26;41.53
80624;BME280;70269;44.768;9.600;2023-06-24T07:27:16;97793.88;;;27.42;40.49
80624;BME280;70269;44.768;9.600;2023-06-24T07:29:41;97792.56;;;26.76;32.47
80624;BME280;70269;44.768;9.600;2023-06-24T07:32:07;97790.44;;;26.60;33.37
80624;BME280;70269;44.768;9.600;2023-06-24T07:34:33;97785.88;;;27.05;33.13
80624;BME280;70269;44.768;9.600;2023-06-24T07:36:58;97793.91;;;26.51;29.97
80624;BME280;70269;44.768;9.600;2023-06-24T07:39:24;97792.16;;;25.96;29.28
80624;BME280;70269;44.768;9.600;2023-06-24T07:41:50;97788.66;;;26.77;30.07
80624;BME280;70269;44.768;9.600;2023-06-24T07:44:15;97784.75;;;27.06;32.23
80624;BME280;70269;44.768;9.600;2023-06-24T07:46:41;97789.59;;;26.32;29.67
80624;BME280;70269;44.768;9.600;2023-06-24T07:49:06;97793.50;;;26.44;30.57
80624;BME280;70269;44.768;9.600;2023-06-24T07:51:32;97796.09;;;26.08;28.81
80624;BME280;70269;44.768;9.600;2023-06-24T07:54:00;97787.25;;;26.06;28.55
80624;BME280;70269;44.768;9.600;2023-06-24T07:56:26;97796.28;;;26.12;29.13
80624;BME280;70269;44.768;9.600;2023-06-24T07:58:52;97776.59;;;26.00;30.60
80624;BME280;70269;44.768;9.600;2023-06-24T08:01:18;97786.00;;;26.45;31.44
80624;BME280;70269;44.768;9.600;2023-06-24T08:03:43;97782.59;;;26.48;29.03
80624;BME280;70269;44.768;9.600;2023-06-24T08:06:09;97778.00;;;26.57;31.16
80624;BME280;70269;44.768;9.600;2023-06-24T08:08:34;97787.22;;;27.29;31.09
80624;BME280;70269;44.768;9.600;2023-06-24T08:11:02;97787.34;;;27.24;29.54
80624;BME280;70269;44.768;9.600;2023-06-24T08:13:28;97783.63;;;26.25;28.72
80624;BME280;70269;44.768;9.600;2023-06-24T08:15:53;97790.97;;;26.02;29.61
80624;BME280;70269;44.768;9.600;2023-06-24T08:18:19;97777.34;;;26.19;31.25
80624;BME280;70269;44.768;9.600;2023-06-24T08:20:45;97778.72;;;25.89;28.94
80624;BME280;70269;44.768;9.600;2023-06-24T08:23:10;97774.81;;;26.77;29.51
80624;BME280;70269;44.768;9.600;2023-06-24T08:25:36;97785.59;;;26.51;30.17
80624;BME280;70269;44.768;9.600;2023-06-24T08:28:01;97773.81;;;26.00;31.62
80624;BME280;70269;44.768;9.600;2023-06-24T08:30:27;97777.28;;;26.24;31.04
80624;BME280;70269;44.768;9.600;2023-06-24T08:32:53;97775.84;;;26.95;31.50
80624;BME280;70269;44.768;9.600;2023-06-24T08:35:18;97776.63;;;27.09;30.04
80624;BME280;70269;44.768;9.600;2023-06-24T08:37:44;97768.38;;;27.18;30.06
80624;BME280;70269;44.768;9.600;2023-06-24T08:40:09;97764.22;;;27.29;29.97
80624;BME280;70269;44.768;9.600;2023-06-24T08:42:36;97765.25;;;27.33;31.02
80624;BME280;70269;44.768;9.600;2023-06-24T08:45:01;97764.16;;;26.71;29.61
80624;BME280;70269;44.768;9.600;2023-06-24T08:47:28;97765.38;;;26.65;30.86
80624;BME280;70269;44.768;9.600;2023-06-24T08:50:03;97761.09;;;26.45;29.91
80624;BME280;70269;44.768;9.600;2023-06-24T08:52:36;97753.19;;;26.66;31.43
80624;BME280;70269;44.768;9.600;2023-06-24T08:55:04;97752.53;;;26.96;29.86
80624;BME280;70269;44.768;9.600;2023-06-24T08:57:31;97751.28;;;27.02;31.03
80624;BME280;70269;44.768;9.600;2023-06-24T08:59:57;97755.59;;;26.81;32.38
80624;BME280;70269;44.768;9.600;2023-06-24T09:02:22;97751.00;;;26.76;31.12
80624;BME280;70269;44.768;9.600;2023-06-24T09:04:50;97752.09;;;27.03;30.73
80624;BME280;70269;44.768;9.600;2023-06-24T09:07:25;97752.03;;;26.94;34.78
80624;BME280;70269;44.768;9.600;2023-06-24T09:09:51;97742.63;;;27.04;32.13
80624;BME280;70269;44.768;9.600;2023-06-24T09:12:16;97747.16;;;27.35;30.63
80624;BME280;70269;44.768;9.600;2023-06-24T09:14:47;97747.78;;;27.32;30.49
80624;BME280;70269;44.768;9.600;2023-06-24T09:17:13;97751.50;;;26.92;31.95
80624;BME280;70269;44.768;9.600;2023-06-24T09:19:38;97752.28;;;27.06;29.45
80624;BME280;70269;44.768;9.600;2023-06-24T09:22:06;97742.41;;;27.14;31.52
80624;BME280;70269;44.768;9.600;2023-06-24T09:24:36;97746.50;;;27.16;31.89
80624;BME280;70269;44.768;9.600;2023-06-24T09:27:03;97744.91;;;27.02;31.47
80624;BME280;70269;44.768;9.600;2023-06-24T09:29:33;97744.63;;;27.25;31.40
80624;BME280;70269;44.768;9.600;2023-06-24T09:31:58;97750.25;;;26.98;30.42
80624;BME280;70269;44.768;9.600;2023-06-24T09:34:28;97742.03;;;27.07;30.98
80624;BME280;70269;44.768;9.600;2023-06-24T09:36:55;97740.50;;;27.01;32.99
80624;BME280;70269;44.768;9.600;2023-06-24T09:39:22;97745.09;;;27.05;31.93
80624;BME280;70269;44.768;9.600;2023-06-24T09:41:53;97748.94;;;26.82;30.69
80624;BME280;70269;44.768;9.600;2023-06-24T09:44:18;97741.03;;;26.75;31.77
80624;BME280;70269;44.768;9.600;2023-06-24T09:46:45;97739.09;;;26.89;31.55
80624;BME280;70269;44.768;9.600;2023-06-24T09:49:11;97750.25;;;26.98;30.03
80624;BME280;70269;44.768;9.600;2023-06-24T09:51:38;97750.94;;;27.04;29.57
80624;BME280;70269;44.768;9.600;2023-06-24T09:54:08;97738.31;;;27.11;29.77
80624;BME280;70269;44.768;9.600;2023-06-24T09:56:35;97743.19;;;26.92;30.54
80624;BME280;70269;44.768;9.600;2023-06-24T09:59:05;97737.22;;;26.85;28.88
80624;BME280;70269;44.768;9.600;2023-06-24T10:01:32;97733.94;;;26.83;28.80
80624;BME280;70269;44.768;9.600;2023-06-24T10:04:01;97723.97;;;27.31;31.36
80624;BME280;70269;44.768;9.600;2023-06-24T10:06:28;97726.66;;;26.87;29.69
80624;BME280;70269;44.768;9.600;2023-06-24T10:08:54;97729.84;;;26.94;28.86
80624;BME280;70269;44.768;9.600;2023-06-24T10:11:20;97726.34;;;27.47;28.47
80624;BME280;70269;44.768;9.600;2023-06-24T10:13:46;97727.81;;;27.44;29.92
80624;BME280;70269;44.768;9.600;2023-06-24T10:16:12;97726.53;;;27.50;30.17
80624;BME280;70269;44.768;9.600;2023-06-24T10:18:38;97732.00;;;26.97;29.07
80624;BME280;70269;44.768;9.600;2023-06-24T10:21:05;97720.66;;;27.29;27.37
80624;BME280;70269;44.768;9.600;2023-06-24T10:23:43;97720.63;;;27.43;29.57
80624;BME280;70269;44.768;9.600;2023-06-24T10:26:28;97715.75;;;27.49;29.01
80624;BME280;70269;44.768;9.600;2023-06-24T10:34:29;97726.81;;;27.04;28.21
80624;BME280;70269;44.768;9.600;2023-06-24T10:36:57;97721.41;;;26.99;29.43
80624;BME280;70269;44.768;9.600;2023-06-24T10:39:39;97719.03;;;27.06;30.05
80624;BME280;70269;44.768;9.600;2023-06-24T10:42:32;97717.22;;;27.24;29.01
80624;BME280;70269;44.768;9.600;2023-06-24T10:47:29;97705.63;;;27.44;31.05
80624;BME280;70269;44.768;9.600;2023-06-24T10:49:55;97708.84;;;27.15;28.10
80624;BME280;70269;44.768;9.600;2023-06-24T10:52:22;97703.91;;;27.12;29.87
80624;BME280;70269;44.768;9.600;2023-06-24T10:54:50;97701.91;;;27.26;27.80
80624;BME280;70269;44.768;9.600;2023-06-24T10:57:21;97698.06;;;27.14;28.12
80624;BME280;70269;44.768;9.600;2023-06-24T10:59:52;97699.50;;;27.11;29.73
80624;BME280;70269;44.768;9.600;2023-06-24T11:02:19;97691.94;;;27.03;30.85
80624;BME280;70269;44.768;9.600;2023-06-24T11:04:47;97690.50;;;27.28;30.10
80624;BME280;70269;44.768;9.600;2023-06-24T11:07:14;97691.75;;;27.44;31.32
80624;BME280;70269;44.768;9.600;2023-06-24T11:09:48;97687.72;;;27.28;30.40
80624;BME280;70269;44.768;9.600;2023-06-24T11:12:14;97690.53;;;27.36;29.47
80624;BME280;70269;44.768;9.600;2023-06-24T11:14:40;97679.41;;;27.28;28.97
80624;BME280;70269;44.768;9.600;2023-06-24T11:17:06;97685.72;;;27.20;30.21
80624;BME280;70269;44.768;9.600;2023-06-24T11:19:31;97676.88;;;26.95;29.08
80624;BME280;70269;44.768;9.600;2023-06-24T11:22:01;97677.31;;;27.11;29.78
80624;BME280;70269;44.768;9.600;2023-06-24T11:24:27;97675.94;;;27.45;29.73
80624;BME280;70269;44.768;9.600;2023-06-24T11:26:53;97670.88;;;27.24;27.28
80624;BME280;70269;44.768;9.600;2023-06-24T11:29:19;97665.47;;;27.19;28.75
80624;BME280;70269;44.768;9.600;2023-06-24T11:31:45;97666.78;;;26.86;28.71
80624;BME280;70269;44.768;9.600;2023-06-24T11:34:10;97670.03;;;27.15;26.89
80624;BME280;70269;44.768;9.600;2023-06-24T11:36:36;97670.06;;;27.24;27.00
80624;BME280;70269;44.768;9.600;2023-06-24T11:39:02;97669.75;;;27.25;27.28
80624;BME280;70269;44.768;9.600;2023-06-24T11:41:28;97654.00;;;27.12;26.89
80624;BME280;70269;44.768;9.600;2023-06-24T11:43:54;97664.59;;;27.32;31.58
80624;BME280;70269;44.768;9.600;2023-06-24T11:46:26;97659.69;;;27.07;27.63
80624;BME280;70269;44.768;9.600;2023-06-24T11:49:13;97650.09;;;27.13;29.75
80624;BME280;70269;44.768;9.600;2023-06-24T11:51:46;97660.09;;;27.23;28.34
80624;BME280;70269;44.768;9.600;2023-06-24T11:54:14;97658.28;;;27.18;28.07
80624;BME280;70269;44.768;9.600;2023-06-24T11:56:41;97664.28;;;27.34;29.98
80624;BME280;70269;44.768;9.600;2023-06-24T11:59:19;97657.91;;;27.33;27.35
80624;BME280;70269;44.768;9.600;2023-06-24T12:01:55;97647.94;;;27.32;28.66
80624;BME280;70269;44.768;9.600;2023-06-24T12:04:27;97651.09;;;27.40;27.23
80624;BME280;70269;44.768;9.600;2023-06-24T12:06:53;97649.06;;;27.54;27.48
80624;BME280;70269;44.768;9.600;2023-06-24T12:09:19;97642.09;;;27.12;27.67
80624;BME280;70269;44.768;9.600;2023-06-24T12:11:45;97638.84;;;27.41;29.59
80624;BME280;70269;44.768;9.600;2023-06-24T12:14:11;97637.34;;;27.57;29.46
80624;BME280;70269;44.768;9.600;2023-06-24T12:16:37;97640.69;;;27.23;26.40
80624;BME280;70269;44.768;9.600;2023-06-24T12:19:03;97641.56;;;27.10;26.53
80624;BME280;70269;44.768;9.600;2023-06-24T12:21:28;97637.69;;;27.33;28.29
80624;BME280;70269;44.768;9.600;2023-06-24T12:23:54;97644.88;;;27.34;28.56
80624;BME280;70269;44.768;9.600;2023-06-24T12:26:19;97640.59;;;27.28;28.10
80624;BME280;70269;44.768;9.600;2023-06-24T12:28:45;97645.31;;;27.27;26.05
80624;BME280;70269;44.768;9.600;2023-06-24T12:31:11;97638.31;;;27.52;29.97
80624;BME280;70269;44.768;9.600;2023-06-24T12:33:36;97636.34;;;27.53;28.35
80624;BME280;70269;44.768;9.600;2023-06-24T12:36:02;97635.53;;;27.30;29.02
80624;BME280;70269;44.768;9.600;2023-06-24T12:38:28;97631.41;;;27.50;30.27
80624;BME280;70269;44.768;9.600;2023-06-24T12:40:53;97641.88;;;27.30;26.03
80624;BME280;70269;44.768;9.600;2023-06-24T12:43:18;97642.16;;;27.20;26.95
80624;BME280;70269;44.768;9.600;2023-06-24T12:45:44;97639.38;;;27.20;26.42
80624;BME280;70269;44.768;9.600;2023-06-24T12:48:10;97633.56;;;27.30;29.38
80624;BME280;70269;44.768;9.600;2023-06-24T12:50:36;97631.81;;;27.12;28.43
80624;BME280;70269;44.768;9.600;2023-06-24T12:53:02;97630.88;;;27.48;28.87
80624;BME280;70269;44.768;9.600;2023-06-24T12:55:29;97627.03;;;27.26;28.54
80624;BME280;70269;44.768;9.600;2023-06-24T12:57:54;97617.00;;;27.17;30.44
80624;BME280;70269;44.768;9.600;2023-06-24T13:00:20;97612.06;;;27.36;28.08
80624;BME280;70269;44.768;9.600;2023-06-24T13:02:46;97604.06;;;27.34;27.43
80624;BME280;70269;44.768;9.600;2023-06-24T13:05:12;97610.34;;;27.49;28.61
80624;BME280;70269;44.768;9.600;2023-06-24T13:07:38;97617.75;;;27.31;27.57
80624;BME280;70269;44.768;9.600;2023-06-24T13:10:03;97612.84;;;27.28;27.91
80624;BME280;70269;44.768;9.600;2023-06-24T13:12:31;97596.38;;;27.31;27.80
80624;BME280;70269;44.768;9.600;2023-06-24T13:14:56;97592.94;;;27.26;28.96
80624;BME280;70269;44.768;9.600;2023-06-24T13:17:22;97582.09;;;27.16;28.20